Date,TemperatureHighF,TemperatureAvgF,TemperatureLowF,DewpointHighF,DewpointAvgF,DewpointLowF,HumidityHigh,HumidityAvg,HumidityLow,PressureMaxIn,PressureMinIn,WindSpeedMaxMPH,WindSpeedAvgMPH,GustSpeedMaxMPH,PrecipitationSumIn
2013-1-1,37.0,21.3,11.0,-99.9,-99.9,-99.9,0,0,100,0.00,40.00,5,3,0,0.00
2013-1-2,34.0,23.9,15.0,-99.9,-99.9,-99.9,0,0,100,0.00,40.00,14,5,0,0.00
2013-1-3,43.0,25.9,15.0,-99.9,-99.9,-99.9,0,0,100,0.00,40.00,9,4,0,0.00
2013-1-4,50.0,30.1,16.0,-99.9,-99.9,-99.9,0,0,100,0.00,40.00,9,4,0,0.00
2013-1-5,41.0,29.3,19.0,-99.9,-99.9,-99.9,0,0,100,0.00,40.00,10,5,0,0.00
2013-1-6,47.0,28.2,12.0,-99.9,-99.9,-99.9,0,0,100,0.00,40.00,6,2,0,0.00
2013-1-7,55.0,38.0,27.0,-99.9,-99.9,-99.9,0,0,100,0.00,40.00,7,4,0,0.00
2013-1-8,53.0,41.6,25.0,-99.9,-99.9,-99.9,0,0,100,0.00,40.00,19,5,0,0.00
2013-1-9,42.0,28.6,23.0,-99.9,-99.9,-99.9,0,0,100,0.00,40.00,8,3,0,0.00
2013-1-10,42.0,32.2,19.0,-99.9,-99.9,-99.9,0,0,100,0.00,40.00,10,3,0,0.00
2013-1-11,45.0,28.6,13.0,-99.9,-99.9,-99.9,0,0,100,0.00,40.00,14,8,0,0.00
2013-1-12,15.0,8.5,3.0,-99.9,-99.9,-99.9,0,0,100,0.00,40.00,9,5,0,0.00
2013-1-13,16.0,8.5,-1.0,-99.9,-99.9,-99.9,0,0,100,0.00,40.00,8,3,0,0.00
2013-1-14,15.0,7.1,2.0,-99.9,-99.9,-99.9,0,0,100,0.00,40.00,5,2,0,0.00
2013-1-15,32.0,22.8,1.0,-99.9,-99.9,-99.9,0,0,100,0.00,40.00,6,3,0,0.00
2013-1-16,54.0,37.3,24.0,-99.9,-99.9,-99.9,0,0,100,0.00,40.00,7,5,0,0.00
2013-1-17,54.0,36.3,20.0,-99.9,-99.9,-99.9,0,0,100,0.00,40.00,5,2,0,0.00
2013-1-18,61.0,42.8,27.0,-99.9,-99.9,-99.9,0,0,100,0.00,40.00,8,5,0,0.00
2013-1-19,63.0,43.2,30.0,-99.9,-99.9,-99.9,0,0,100,0.00,40.00,15,4,0,0.00
2013-1-20,48.0,34.5,22.0,-99.9,-99.9,-99.9,0,0,100,0.00,40.00,15,5,0,0.00
2013-1-21,59.0,38.5,16.0,-99.9,-99.9,-99.9,0,0,100,0.00,40.00,12,5,0,0.00
2013-1-22,64.0,49.5,32.0,-99.9,-99.9,-99.9,0,0,100,0.00,40.00,15,6,0,0.00
2013-1-23,54.0,41.9,32.0,-99.9,-99.9,-99.9,0,0,100,0.00,40.00,8,4,0,0.00
2013-1-24,66.0,47.5,26.0,-99.9,-99.9,-99.9,0,0,100,0.00,40.00,18,9,0,0.00
2013-1-25,58.0,43.3,30.0,-99.9,-99.9,-99.9,0,0,100,0.00,40.00,8,3,0,0.00
2013-1-26,53.0,40.6,29.0,-99.9,-99.9,-99.9,0,0,100,0.00,40.00,8,4,0,0.00
2013-1-27,59.0,44.2,31.0,-99.9,-99.9,-99.9,0,0,100,0.00,40.00,7,4,0,0.00
2013-1-28,52.0,37.2,27.0,-99.9,-99.9,-99.9,0,0,100,0.00,40.00,20,6,0,0.00
2013-1-29,31.0,26.0,22.0,-99.9,-99.9,-99.9,0,0,100,0.00,40.00,15,6,0,0.00
2013-1-30,40.0,29.3,15.0,-99.9,-99.9,-99.9,0,0,100,0.00,40.00,15,6,0,0.00
2013-1-31,46.0,36.2,24.0,-99.9,-99.9,-99.9,0,0,100,0.00,40.00,21,6,0,0.00
2013-2-1,49.0,35.2,21.0,-99.9,-99.9,-99.9,0,0,100,0.00,40.00,22,8,0,0.00
2013-2-2,58.0,40.0,26.0,-99.9,-99.9,-99.9,0,0,100,0.00,40.00,13,6,0,0.00
2013-2-3,49.0,36.3,24.0,-99.9,-99.9,-99.9,0,0,100,0.00,40.00,7,3,0,0.00
2013-2-4,55.0,41.3,26.0,-99.9,-99.9,-99.9,0,0,100,0.00,40.00,20,8,0,0.00
2013-2-5,63.0,45.1,28.0,-99.9,-99.9,-99.9,0,0,100,0.00,40.00,8,4,0,0.00
2013-2-6,57.0,42.3,30.0,-99.9,-99.9,-99.9,0,0,100,0.00,40.00,10,5,0,0.00
2013-2-7,49.0,37.7,27.0,-99.9,-99.9,-99.9,0,0,100,0.00,40.00,9,5,0,0.00
2013-2-8,50.0,34.4,22.0,-99.9,-99.9,-99.9,0,0,100,0.00,40.00,8,4,0,0.00
2013-2-9,36.0,30.0,25.0,-99.9,-99.9,-99.9,0,0,100,0.00,40.00,11,6,0,0.00
2013-2-10,36.0,28.4,21.0,-99.9,-99.9,-99.9,0,0,100,0.00,40.00,17,7,0,0.00
2013-2-11,32.0,23.7,17.0,-99.9,-99.9,-99.9,0,0,100,0.00,40.00,8,3,0,0.00
2013-2-12,43.0,30.2,18.0,-99.9,-99.9,-99.9,0,0,100,0.00,40.00,5,3,0,0.00
2013-2-13,47.0,36.6,25.0,-99.9,-99.9,-99.9,0,0,100,0.00,40.00,18,9,0,0.00
2013-2-14,33.0,28.4,24.0,-99.9,-99.9,-99.9,0,0,100,0.00,40.00,19,6,0,0.00
2013-2-15,40.0,28.0,17.0,-99.9,-99.9,-99.9,0,0,100,0.00,40.00,16,5,0,0.00
2013-2-16,57.0,45.1,27.0,-99.9,-99.9,-99.9,0,0,100,0.00,40.00,13,9,0,0.00
2013-2-17,62.0,44.5,30.0,-99.9,-99.9,-99.9,0,0,100,0.00,40.00,15,9,0,0.00
2013-2-18,41.0,32.8,24.0,-99.9,-99.9,-99.9,0,0,100,0.00,40.00,18,6,0,0.00
2013-2-19,40.0,31.5,16.0,-99.9,-99.9,-99.9,0,0,100,0.00,40.00,9,4,0,0.00
2013-2-20,34.0,26.7,20.0,-99.9,-99.9,-99.9,0,0,100,0.00,40.00,10,6,0,0.00
2013-2-21,27.0,20.5,15.0,-99.9,-99.9,-99.9,0,0,100,0.00,40.00,10,5,0,0.00
2013-2-22,34.0,25.0,15.0,-99.9,-99.9,-99.9,0,0,100,0.00,40.00,9,4,0,0.00
2013-2-23,46.0,32.9,21.0,-99.9,-99.9,-99.9,0,0,100,0.00,40.00,16,7,0,0.00
2013-2-24,29.0,26.5,21.0,-99.9,-99.9,-99.9,0,0,100,0.00,40.00,20,11,0,0.00
2013-2-25,36.0,24.5,12.0,-99.9,-99.9,-99.9,0,0,100,0.00,40.00,8,4,0,0.00
2013-2-26,31.0,25.7,18.0,-99.9,-99.9,-99.9,0,0,100,0.00,40.00,18,8,0,0.00
2013-2-27,37.0,29.2,20.0,-99.9,-99.9,-99.9,0,0,100,0.00,40.00,9,6,0,0.00
2013-2-28,44.0,32.1,18.0,-99.9,-99.9,-99.9,0,0,100,0.00,40.00,11,6,0,0.00
2013-3-1,46.0,37.1,27.0,-99.9,-99.9,-99.9,0,0,100,0.00,40.00,8,5,0,0.00
2013-3-2,62.0,46.7,31.0,-99.9,-99.9,-99.9,0,0,100,0.00,40.00,12,4,0,0.00
2013-3-3,65.0,52.9,41.0,-99.9,-99.9,-99.9,0,0,100,0.00,40.00,15,7,0,0.00
2013-3-4,46.0,31.0,20.0,-99.9,-99.9,-99.9,0,0,100,0.00,40.00,13,6,0,0.00
2013-3-5,40.0,27.2,14.0,-99.9,-99.9,-99.9,0,0,100,0.00,40.00,9,5,0,0.00
2013-3-6,59.0,38.4,21.0,-99.9,-99.9,-99.9,0,0,100,0.00,40.00,10,4,0,0.00
2013-3-7,65.0,46.8,29.0,-99.9,-99.9,-99.9,0,0,100,0.00,40.00,12,5,0,0.00
2013-3-8,47.0,38.5,31.0,-99.9,-99.9,-99.9,0,0,100,0.00,40.00,7,4,0,0.00
2013-3-9,35.0,33.1,32.0,-99.9,-99.9,-99.9,0,0,100,0.00,40.00,13,6,0,0.00
2013-4-15,31.0,26.3,23.0,-99.9,-99.9,-99.9,0,0,100,0.00,40.00,12,7,0,0.00
2013-4-16,36.0,30.1,23.0,-99.9,-99.9,-99.9,0,0,100,0.00,40.00,16,10,0,0.00
2013-4-17,31.0,27.1,22.0,-99.9,-99.9,-99.9,0,0,100,0.00,40.00,20,10,0,0.00
2013-4-18,39.0,29.9,18.0,-99.9,-99.9,-99.9,0,0,100,0.00,40.00,9,4,0,0.00
2013-4-19,54.0,46.8,29.0,-99.9,-99.9,-99.9,0,0,100,0.00,40.00,17,8,0,0.00
2013-4-20,61.0,48.7,36.0,-99.9,-99.9,-99.9,0,0,100,0.00,40.00,9,5,0,0.00
2013-4-21,63.0,53.2,38.0,-99.9,-99.9,-99.9,0,0,100,0.00,40.00,8,5,0,0.00
2013-4-22,49.0,32.7,24.0,-99.9,-99.9,-99.9,0,0,100,0.00,40.00,18,9,0,0.00
2013-4-23,38.0,28.4,21.0,-99.9,-99.9,-99.9,0,0,100,0.00,40.00,8,5,0,0.00
2013-4-24,57.0,42.5,28.0,-99.9,-99.9,-99.9,0,0,100,0.00,40.00,9,6,0,0.00
2013-4-25,67.0,52.7,33.0,-99.9,-99.9,-99.9,0,0,100,0.00,40.00,10,4,0,0.00
2013-4-26,67.0,57.1,40.0,-99.9,-99.9,-99.9,0,0,100,0.00,40.00,8,5,0,0.00
2013-4-27,74.0,58.9,43.0,-99.9,-99.9,-99.9,0,0,100,0.00,40.00,9,5,0,0.00
2013-4-28,78.0,65.0,50.0,-99.9,-99.9,-99.9,0,0,100,0.00,40.00,13,7,0,0.00
2013-4-29,78.0,70.4,54.0,-99.9,-99.9,-99.9,0,0,100,0.00,40.00,15,10,0,0.00
2013-4-30,55.0,50.1,40.0,-99.9,-99.9,-99.9,0,0,100,0.00,40.00,16,9,0,0.00
2013-5-1,34.0,29.6,26.0,-99.9,-99.9,-99.9,0,0,100,0.00,40.00,12,8,0,0.00
2013-5-2,46.0,35.7,25.0,-99.9,-99.9,-99.9,0,0,100,0.00,40.00,6,3,0,0.00
2013-5-3,58.0,43.1,33.0,-99.9,-99.9,-99.9,0,0,100,0.00,40.00,10,5,0,0.00
2013-5-4,59.0,50.2,40.0,-99.9,-99.9,-99.9,0,0,100,0.00,40.00,11,7,0,0.00
2013-5-5,57.0,46.8,38.0,-99.9,-99.9,-99.9,0,0,100,0.00,40.00,9,5,0,0.00
2013-5-6,66.0,56.5,42.0,-99.9,-99.9,-99.9,0,0,100,0.00,40.00,7,5,0,0.00
2013-5-7,70.0,59.4,48.0,-99.9,-99.9,-99.9,0,0,100,0.00,40.00,10,5,0,0.00
2013-5-8,58.0,49.9,47.0,-99.9,-99.9,-99.9,0,0,100,0.00,40.00,15,7,0,0.00
2013-5-9,57.0,50.8,45.0,-99.9,-99.9,-99.9,0,0,100,0.00,40.00,19,6,0,0.00
2013-5-10,67.0,54.6,41.0,-99.9,-99.9,-99.9,0,0,100,0.00,40.00,17,6,0,0.00
2013-5-11,70.0,58.2,47.0,-99.9,-99.9,-99.9,0,0,100,0.00,40.00,8,5,0,0.00
2013-5-12,78.0,67.5,51.0,-99.9,-99.9,-99.9,0,0,100,0.00,40.00,8,5,0,0.00
2013-5-13,87.0,75.2,57.0,-99.9,-99.9,-99.9,0,0,100,0.00,40.00,11,6,0,0.00
2013-5-14,86.0,73.8,61.0,-99.9,-99.9,-99.9,0,0,100,0.00,40.00,18,8,0,0.00
2013-5-15,83.0,65.7,58.0,-99.9,-99.9,-99.9,0,0,100,0.00,40.00,10,6,0,0.00
2013-5-16,79.0,59.6,55.0,-99.9,-99.9,-99.9,0,0,100,0.00,40.00,12,5,0,0.00
2013-5-17,87.0,71.8,55.0,-99.9,-99.9,-99.9,0,0,100,0.00,40.00,12,6,0,0.00
2013-5-18,76.0,66.1,55.0,-99.9,-99.9,-99.9,0,0,100,0.00,40.00,14,6,0,0.00
2013-5-19,70.0,61.8,53.0,-99.9,-99.9,-99.9,0,0,100,0.00,40.00,13,6,0,0.00
2013-5-20,64.0,55.1,47.0,-99.9,-99.9,-99.9,0,0,100,0.00,40.00,11,6,0,0.00
2013-5-21,70.0,58.8,46.0,-99.9,-99.9,-99.9,0,0,100,0.00,40.00,10,6,0,0.00
2013-5-22,76.0,60.8,46.0,-99.9,-99.9,-99.9,0,0,100,0.00,40.00,11,6,0,0.00
2013-5-23,70.0,61.1,47.0,-99.9,-99.9,-99.9,0,0,100,0.00,40.00,16,7,0,0.00
2013-5-24,84.0,69.8,49.0,-99.9,-99.9,-99.9,0,0,100,0.00,40.00,14,7,0,0.00
2013-5-25,92.0,75.1,58.0,-99.9,-99.9,-99.9,0,0,100,0.00,40.00,9,5,0,0.00
2013-5-26,84.0,73.2,57.0,-99.9,-99.9,-99.9,0,0,100,0.00,40.00,12,5,0,0.00
2013-5-27,83.0,72.7,58.0,-99.9,-99.9,-99.9,0,0,100,0.00,40.00,14,7,0,0.00
2013-5-28,82.0,69.2,52.0,-99.9,-99.9,-99.9,0,0,100,0.00,40.00,12,6,0,0.00
2013-5-29,67.0,57.0,48.0,-99.9,-99.9,-99.9,0,0,100,0.00,40.00,19,7,0,0.00
2013-5-30,67.0,62.2,55.0,-99.9,-99.9,-99.9,0,0,100,0.00,40.00,22,15,0,0.00
2013-5-31,71.0,63.8,56.0,-99.9,-99.9,-99.9,0,0,100,0.00,40.00,15,11,0,0.00
2013-6-1,70.0,59.7,48.0,-99.9,-99.9,-99.9,0,0,100,0.00,40.00,14,6,0,0.00
2013-6-2,86.0,68.4,45.0,-99.9,-99.9,-99.9,0,0,100,0.00,40.00,11,4,0,0.00
2013-6-3,89.0,74.9,59.0,-99.9,-99.9,-99.9,0,0,100,0.00,40.00,14,8,0,0.00
2013-6-4,72.0,60.1,55.0,-99.9,-99.9,-99.9,0,0,100,0.00,40.00,17,8,0,0.00
2013-6-5,60.0,54.1,47.0,-99.9,-99.9,-99.9,0,0,100,0.00,40.00,7,5,0,0.00
2013-6-6,79.0,66.1,47.0,-99.9,-99.9,-99.9,0,0,100,0.00,40.00,9,5,0,0.00
2013-6-7,83.0,68.7,54.0,-99.9,-99.9,-99.9,0,0,100,0.00,40.00,12,4,0,0.00
2013-6-8,76.0,69.3,64.0,-99.9,-99.9,-99.9,0,0,100,0.00,40.00,17,8,0,0.00
2013-6-9,93.0,76.9,52.0,-99.9,-99.9,-99.9,0,0,100,0.00,40.00,8,4,0,0.00
2013-6-10,97.0,83.0,70.0,-99.9,-99.9,-99.9,0,0,100,0.00,40.00,11,6,0,0.00
2013-6-11,98.0,91.5,81.0,-99.9,-99.9,-99.9,0,0,100,0.00,40.00,15,12,0,0.00
2013-6-12,93.0,81.4,64.0,-99.9,-99.9,-99.9,0,0,100,0.00,40.00,16,7,0,0.00
2013-6-13,84.0,72.3,57.0,-99.9,-99.9,-99.9,0,0,100,0.00,40.00,13,7,0,0.00
2013-6-14,90.0,80.1,68.0,-99.9,-99.9,-99.9,0,0,100,0.00,40.00,16,8,0,0.00
2013-6-15,82.0,70.9,59.0,-99.9,-99.9,-99.9,0,0,100,0.00,40.00,11,6,0,0.00
2013-6-16,85.0,74.8,64.0,-99.9,-99.9,-99.9,0,0,100,0.00,40.00,16,6,0,0.00
2013-6-17,73.0,63.9,57.0,-99.9,-99.9,-99.9,0,0,100,0.00,40.00,12,5,0,0.00
2013-6-22,85.0,76.1,66.0,-99.9,-99.9,-99.9,0,0,100,0.00,40.00,13,7,0,0.00
2013-6-23,86.0,70.7,58.0,-99.9,-99.9,-99.9,0,0,100,0.00,40.00,14,7,0,0.00
2013-6-24,89.0,77.5,62.0,-99.9,-99.9,-99.9,0,0,100,0.00,40.00,16,8,0,0.00
2013-6-25,90.0,80.3,64.0,-99.9,-99.9,-99.9,0,0,100,0.00,40.00,13,6,0,0.00
2013-6-26,99.0,84.8,65.0,-99.9,-99.9,-99.9,0,0,100,0.00,40.00,9,5,0,0.00
2013-6-27,97.0,85.9,68.0,-99.9,-99.9,-99.9,0,0,100,0.00,40.00,9,6,0,0.00
2013-6-28,92.0,80.7,67.0,-99.9,-99.9,-99.9,0,0,100,0.00,40.00,14,7,0,0.00
2013-6-29,86.0,75.9,63.0,-99.9,-99.9,-99.9,0,0,100,0.00,40.00,10,4,0,0.00
2013-6-30,79.0,70.7,63.0,-99.9,-99.9,-99.9,0,0,100,0.00,40.00,11,6,0,0.00
2013-7-1,79.0,72.8,63.0,-99.9,-99.9,-99.9,0,0,100,0.00,40.00,10,7,0,0.00
2013-7-2,82.0,71.8,57.0,-99.9,-99.9,-99.9,0,0,100,0.00,40.00,12,4,0,0.00
2013-7-3,88.0,76.5,59.0,-99.9,-99.9,-99.9,0,0,100,0.00,40.00,7,4,0,0.00
2013-7-4,90.0,78.8,63.0,-99.9,-99.9,-99.9,0,0,100,0.00,40.00,11,6,0,0.00
2013-7-5,90.0,77.9,67.0,-99.9,-99.9,-99.9,0,0,100,0.00,40.00,17,6,0,0.00
2013-7-6,88.0,78.6,72.0,-99.9,-99.9,-99.9,0,0,100,0.00,40.00,11,6,0,0.00
2013-7-7,87.0,77.8,66.0,-99.9,-99.9,-99.9,0,0,100,0.00,40.00,14,6,0,0.00
2013-7-8,96.0,79.2,68.0,-99.9,-99.9,-99.9,0,0,100,0.00,40.00,20,5,0,0.00
2013-7-9,95.0,83.6,68.0,-99.9,-99.9,-99.9,0,0,100,0.00,40.00,12,5,0,0.00
2013-7-10,90.0,77.7,64.0,-99.9,-99.9,-99.9,0,0,100,0.00,40.00,11,7,0,0.00
2013-7-11,101.0,82.4,65.0,-99.9,-99.9,-99.9,0,0,100,0.00,40.00,17,7,0,0.00
2013-7-12,94.0,78.3,68.0,-99.9,-99.9,-99.9,0,0,100,0.00,40.00,12,5,0,0.00
2013-7-13,89.0,74.3,64.0,-99.9,-99.9,-99.9,0,0,100,0.00,40.00,13,6,0,0.00
2013-7-14,81.0,71.7,61.0,-99.9,-99.9,-99.9,0,0,100,0.00,40.00,11,6,0,0.00
2013-7-15,79.0,71.1,66.0,-99.9,-99.9,-99.9,0,0,100,0.00,40.00,12,6,0,0.00
2013-7-16,84.0,75.2,60.0,-99.9,-99.9,-99.9,0,0,100,0.00,40.00,14,8,0,0.00
2013-7-17,93.0,78.5,61.0,-99.9,-99.9,-99.9,0,0,100,0.00,40.00,15,6,0,0.00
2013-7-18,92.0,79.7,65.0,-99.9,-99.9,-99.9,0,0,100,0.00,40.00,20,9,0,0.00
2013-7-19,81.0,75.6,67.0,-99.9,-99.9,-99.9,0,0,100,0.00,40.00,13,6,0,0.00
2013-7-20,92.0,75.2,61.0,-99.9,-99.9,-99.9,0,0,100,0.00,40.00,20,6,0,0.00
2013-7-21,93.0,77.1,62.0,-99.9,-99.9,-99.9,0,0,100,0.00,40.00,11,5,0,0.00
2013-7-22,94.0,82.0,65.0,-99.9,-99.9,-99.9,0,0,100,0.00,40.00,9,6,0,0.00
2013-7-23,90.0,78.6,64.0,-99.9,-99.9,-99.9,0,0,100,0.00,40.00,11,6,0,0.00
2013-7-24,84.0,75.3,67.0,-99.9,-99.9,-99.9,0,0,100,0.00,40.00,18,8,0,0.00
2013-7-25,79.0,68.9,60.0,-99.9,-99.9,-99.9,0,0,100,0.00,40.00,15,4,0,0.00
2013-7-26,89.0,74.7,61.0,-99.9,-99.9,-99.9,0,0,100,0.00,40.00,11,4,0,0.00
2013-7-27,77.0,68.2,56.0,-99.9,-99.9,-99.9,0,0,100,0.00,40.00,10,6,0,0.00
2013-7-28,74.0,65.1,60.0,-99.9,-99.9,-99.9,0,0,100,0.00,40.00,8,4,0,0.00
2013-7-29,73.0,65.6,59.0,-99.9,-99.9,-99.9,0,0,100,0.00,40.00,9,4,0,0.00
2013-7-30,90.0,75.5,59.0,-99.9,-99.9,-99.9,0,0,100,0.00,40.00,10,5,0,0.00
2013-7-31,94.0,78.4,63.0,-99.9,-99.9,-99.9,0,0,100,0.00,40.00,13,5,0,0.00
2013-8-1,94.0,78.0,65.0,-99.9,-99.9,-99.9,0,0,100,0.00,40.00,17,7,0,0.00
2013-8-2,93.0,80.7,63.0,-99.9,-99.9,-99.9,0,0,100,0.00,40.00,14,7,0,0.00
2013-8-3,96.0,74.8,61.0,-99.9,-99.9,-99.9,0,0,100,0.00,40.00,19,7,0,0.00
2013-8-4,89.0,75.4,59.0,-99.9,-99.9,-99.9,0,0,100,0.00,40.00,11,6,0,0.00
2013-8-5,87.0,75.8,63.0,-99.9,-99.9,-99.9,0,0,100,0.00,40.00,14,5,0,0.00
2013-8-6,88.0,76.3,63.0,-99.9,-99.9,-99.9,0,0,100,0.00,40.00,16,7,0,0.00
2013-8-7,76.0,68.6,63.0,-99.9,-99.9,-99.9,0,0,100,0.00,40.00,14,6,0,0.00
2013-8-8,77.0,66.6,60.0,-99.9,-99.9,-99.9,0,0,100,0.00,40.00,11,6,0,0.00
2013-8-9,81.0,68.1,57.0,-99.9,-99.9,-99.9,0,0,100,0.00,40.00,12,5,0,0.00
2013-8-10,89.0,73.2,55.0,-99.9,-99.9,-99.9,0,0,100,0.00,40.00,11,5,0,0.00
2013-8-11,83.0,73.0,61.0,-99.9,-99.9,-99.9,0,0,100,0.00,40.00,9,4,0,0.00
2013-8-12,81.0,69.7,59.0,-99.9,-99.9,-99.9,0,0,100,0.00,40.00,13,6,0,0.00
2013-8-13,81.0,69.2,57.0,-99.9,-99.9,-99.9,0,0,100,0.00,40.00,14,5,0,0.00
2013-8-14,83.0,71.0,55.0,-99.9,-99.9,-99.9,0,0,100,0.00,40.00,14,4,0,0.00
2013-8-15,86.0,68.6,58.0,-99.9,-99.9,-99.9,0,0,100,0.00,40.00,8,5,0,0.00
2013-8-16,94.0,76.7,57.0,-99.9,-99.9,-99.9,0,0,100,0.00,40.00,8,4,0,0.00
2013-8-17,95.0,79.2,62.0,-99.9,-99.9,-99.9,0,0,100,0.00,40.00,11,5,0,0.00
2013-8-18,97.0,80.2,63.0,-99.9,-99.9,-99.9,0,0,100,0.00,40.00,14,4,0,0.00
2013-8-19,97.0,77.9,63.0,-99.9,-99.9,-99.9,0,0,100,0.00,40.00,10,4,0,0.00
2013-8-20,97.0,86.1,72.0,-99.9,-99.9,-99.9,0,0,100,0.00,40.00,9,6,0,0.00
2013-8-21,92.0,79.2,68.0,-99.9,-99.9,-99.9,0,0,100,0.00,40.00,17,6,0,0.00
2013-8-22,82.0,73.4,65.0,-99.9,-99.9,-99.9,0,0,100,0.00,40.00,12,6,0,0.00
2013-8-23,89.0,74.6,66.0,-99.9,-99.9,-99.9,0,0,100,0.00,40.00,12,5,0,0.00
2013-8-24,86.0,72.6,61.0,-99.9,-99.9,-99.9,0,0,100,0.00,40.00,11,5,0,0.00
2013-8-25,90.0,78.4,66.0,-99.9,-99.9,-99.9,0,0,100,0.00,40.00,9,4,0,0.00
2013-8-26,92.0,79.5,64.0,-99.9,-99.9,-99.9,0,0,100,0.00,40.00,8,4,0,0.00
2013-8-27,90.0,79.1,66.0,-99.9,-99.9,-99.9,0,0,100,0.00,40.00,6,4,0,0.00
2013-8-28,95.0,87.0,74.0,-99.9,-99.9,-99.9,0,0,100,0.00,40.00,6,4,0,0.00
2013-8-29,94.0,82.2,68.0,-99.9,-99.9,-99.9,0,0,100,0.00,40.00,11,5,0,0.00
2013-8-30,92.0,77.6,70.0,-99.9,-99.9,-99.9,0,0,100,0.00,40.00,14,4,0,0.00
2013-8-31,90.0,75.8,66.0,-99.9,-99.9,-99.9,0,0,100,0.00,40.00,20,5,0,0.00
2013-9-1,82.0,73.1,65.0,-99.9,-99.9,-99.9,0,0,100,0.00,40.00,9,4,0,0.00
2013-9-2,94.0,78.7,60.0,-99.9,-99.9,-99.9,0,0,100,0.00,40.00,10,4,0,0.00
2013-9-3,94.0,82.7,70.0,-99.9,-99.9,-99.9,0,0,100,0.00,40.00,11,5,0,0.00
2013-9-4,95.0,80.9,70.0,-99.9,-99.9,-99.9,0,0,100,0.00,40.00,11,4,0,0.00
2013-9-5,94.0,80.7,66.0,-99.9,-99.9,-99.9,0,0,100,0.00,40.00,9,4,0,0.00
2013-9-6,98.0,82.1,67.0,-99.9,-99.9,-99.9,0,0,100,0.00,40.00,16,5,0,0.00
2013-9-7,95.0,80.0,66.0,-99.9,-99.9,-99.9,0,0,100,0.00,40.00,8,4,0,0.00
2013-9-8,90.0,77.9,64.0,-99.9,-99.9,-99.9,0,0,100,0.00,40.00,12,4,0,0.00
2013-9-9,83.0,69.0,59.0,-99.9,-99.9,-99.9,0,0,100,0.00,40.00,15,6,0,0.00
2013-9-10,67.0,61.9,60.0,-99.9,-99.9,-99.9,0,0,100,0.00,40.00,10,5,0,0.00
2013-9-11,68.0,63.0,61.0,-99.9,-99.9,-99.9,0,0,100,0.00,40.00,8,6,0,0.00
2013-9-12,64.0,61.7,59.0,-99.9,-99.9,-99.9,0,0,100,0.00,40.00,10,6,0,0.00
2013-9-13,77.0,65.9,59.0,-99.9,-99.9,-99.9,0,0,100,0.00,40.00,9,4,0,0.00
2013-9-14,78.0,65.2,59.0,-99.9,-99.9,-99.9,0,0,100,0.00,40.00,10,5,0,0.00
2013-9-15,60.0,57.1,55.0,-99.9,-99.9,-99.9,0,0,100,0.00,40.00,10,5,0,0.00
2013-9-16,74.0,65.0,55.0,-99.9,-99.9,-99.9,0,0,100,0.00,40.00,7,4,0,0.00
2013-9-17,87.0,73.2,58.0,-99.9,-99.9,-99.9,0,0,100,0.00,40.00,7,5,0,0.00
2013-9-18,70.0,64.0,59.0,-99.9,-99.9,-99.9,0,0,100,0.00,40.00,6,4,0,0.00
2013-9-19,68.0,60.3,54.0,-99.9,-99.9,-99.9,0,0,100,0.00,40.00,10,5,0,0.00
2013-9-20,73.0,61.9,50.0,-99.9,-99.9,-99.9,0,0,100,0.00,40.00,7,4,0,0.00
2013-9-21,82.0,63.8,50.0,-99.9,-99.9,-99.9,0,0,100,0.00,40.00,7,4,0,0.00
2013-9-22,79.0,67.3,55.0,-99.9,-99.9,-99.9,0,0,100,0.00,40.00,12,5,0,0.00
2013-9-23,67.0,60.2,51.0,-99.9,-99.9,-99.9,0,0,100,0.00,40.00,19,9,0,0.00
2013-9-24,79.0,65.2,49.0,-99.9,-99.9,-99.9,0,0,100,0.00,40.00,8,4,0,0.00
2013-9-25,85.0,67.9,45.0,-99.9,-99.9,-99.9,0,0,100,0.00,40.00,17,7,0,0.00
2013-9-26,70.0,59.3,49.0,-99.9,-99.9,-99.9,0,0,100,0.00,40.00,8,5,0,0.00
2013-9-27,53.0,47.8,42.0,-99.9,-99.9,-99.9,0,0,100,0.00,40.00,10,6,0,0.00
2013-9-28,68.0,54.3,40.0,-99.9,-99.9,-99.9,0,0,100,0.00,40.00,12,6,0,0.00
2013-9-29,79.0,62.9,45.0,-99.9,-99.9,-99.9,0,0,100,0.00,40.00,7,4,0,0.00
2013-9-30,84.0,70.9,57.0,-99.9,-99.9,-99.9,0,0,100,0.00,40.00,8,4,0,0.00
2013-10-1,79.0,66.7,58.0,-99.9,-99.9,-99.9,0,0,100,0.00,40.00,12,5,0,0.00
2013-10-2,77.0,64.2,48.0,-99.9,-99.9,-99.9,0,0,100,0.00,40.00,9,5,0,0.00
2013-10-3,63.0,52.7,44.0,-99.9,-99.9,-99.9,0,0,100,0.00,40.00,10,5,0,0.00
2013-10-4,43.0,38.2,33.0,-99.9,-99.9,-99.9,0,0,100,0.00,40.00,16,9,0,0.00
2013-10-5,63.0,47.5,31.0,-99.9,-99.9,-99.9,0,0,100,0.00,40.00,10,5,0,0.00
2013-10-6,68.0,55.1,37.0,-99.9,-99.9,-99.9,0,0,100,0.00,40.00,8,3,0,0.00
2013-10-7,81.0,62.5,41.0,-99.9,-99.9,-99.9,0,0,100,0.00,40.00,6,3,0,0.00
2013-10-8,81.0,65.4,51.0,-99.9,-99.9,-99.9,0,0,100,0.00,40.00,10,5,0,0.00
2013-10-9,64.0,56.4,48.0,-99.9,-99.9,-99.9,0,0,100,0.00,40.00,8,6,0,0.00
2013-10-10,60.0,51.8,45.0,-99.9,-99.9,-99.9,0,0,100,0.00,40.00,18,5,0,0.00
2013-10-11,65.0,55.1,46.0,-99.9,-99.9,-99.9,0,0,100,0.00,40.00,14,8,0,0.00
2013-10-12,57.0,47.7,41.0,-99.9,-99.9,-99.9,0,0,100,0.00,40.00,11,6,0,0.00
2013-10-13,61.0,51.0,37.0,-99.9,-99.9,-99.9,0,0,100,0.00,40.00,8,4,0,0.00
2013-10-14,52.0,47.0,41.0,-99.9,-99.9,-99.9,0,0,100,0.00,40.00,14,7,0,0.00
2013-10-15,45.0,39.2,34.0,-99.9,-99.9,-99.9,0,0,100,0.00,40.00,9,4,0,0.00
2013-10-16,55.0,41.4,30.0,-99.9,-99.9,-99.9,0,0,100,0.00,40.00,6,3,0,0.00
2013-10-17,49.0,42.7,36.0,-99.9,-99.9,-99.9,0,0,100,0.00,40.00,8,5,0,0.00
2013-10-18,45.0,37.6,31.0,-99.9,-99.9,-99.9,0,0,100,0.00,40.00,8,4,0,0.00
2013-10-19,66.0,51.0,35.0,-99.9,-99.9,-99.9,0,0,100,0.00,40.00,15,6,0,0.00
2013-10-20,47.0,42.2,37.0,-99.9,-99.9,-99.9,0,0,100,0.00,40.00,14,6,0,0.00
2013-10-21,59.0,47.5,30.0,-99.9,-99.9,-99.9,0,0,100,0.00,40.00,7,4,0,0.00
2013-10-22,66.0,53.2,36.0,-99.9,-99.9,-99.9,0,0,100,0.00,40.00,5,3,0,0.00
2013-10-23,66.0,54.3,42.0,-99.9,-99.9,-99.9,0,0,100,0.00,40.00,7,4,0,0.00
2013-10-24,55.0,43.5,36.0,-99.9,-99.9,-99.9,0,0,100,0.00,40.00,5,3,0,0.00
2013-10-25,68.0,53.5,35.0,-99.9,-99.9,-99.9,0,0,100,0.00,40.00,7,4,0,0.00
2013-10-26,50.0,39.4,39.0,-99.9,-99.9,-99.9,0,0,100,0.00,40.00,4,2,0,0.00
2013-10-27,70.0,56.7,49.0,-99.9,-99.9,-99.9,0,0,100,0.00,40.00,7,5,0,0.00
2013-10-28,37.0,33.9,32.0,-99.9,-99.9,-99.9,0,0,100,0.00,40.00,8,5,0,0.00
2013-10-29,39.0,36.7,32.0,-99.9,-99.9,-99.9,0,0,100,0.00,40.00,7,4,0,0.00
2013-10-30,47.0,40.6,35.0,-99.9,-99.9,-99.9,0,0,100,0.00,40.00,10,5,0,0.00
2013-10-31,54.0,46.9,34.0,-99.9,-99.9,-99.9,0,0,100,0.00,40.00,17,9,0,0.00
2013-11-1,54.0,44.0,35.0,-99.9,-99.9,-99.9,0,0,100,0.00,40.00,7,4,0,0.00
2013-11-2,62.0,45.1,30.0,-99.9,-99.9,-99.9,0,0,100,0.00,40.00,6,3,0,0.00
2013-11-3,68.0,52.8,36.0,-99.9,-99.9,-99.9,0,0,100,0.00,40.00,14,6,0,0.00
2013-11-4,43.0,36.9,31.0,-99.9,-99.9,-99.9,0,0,100,0.00,40.00,11,7,0,0.00
2013-11-5,45.0,36.2,31.0,-99.9,-99.9,-99.9,0,0,100,0.00,40.00,14,6,0,0.00
2013-11-6,53.0,42.3,27.0,-99.9,-99.9,-99.9,0,0,100,0.00,40.00,18,8,0,0.00
2013-11-7,59.0,43.9,31.0,-99.9,-99.9,-99.9,0,0,100,0.00,40.00,8,4,0,0.00
2013-11-8,66.0,51.0,33.0,-99.9,-99.9,-99.9,0,0,100,0.00,40.00,17,5,0,0.00
2013-11-9,64.0,47.5,36.0,-99.9,-99.9,-99.9,0,0,100,0.00,40.00,11,4,0,0.00
2013-11-10,69.0,51.1,32.0,-99.9,-99.9,-99.9,0,0,100,0.00,40.00,6,3,0,0.00
2013-11-11,69.0,41.7,31.0,-99.9,-99.9,-99.9,0,0,100,0.00,40.00,13,6,0,0.00
2013-11-12,58.0,46.0,32.0,-99.9,-99.9,-99.9,0,0,100,0.00,40.00,9,3,0,0.00
2013-11-13,73.0,53.8,36.0,-99.9,-99.9,-99.9,0,0,100,0.00,40.00,8,4,0,0.00
2013-11-14,60.0,50.8,43.0,-99.9,-99.9,-99.9,0,0,100,0.00,40.00,8,4,0,0.00
2013-11-15,65.0,49.7,32.0,-99.9,-99.9,-99.9,0,0,100,0.00,40.00,13,6,0,0.00
2013-11-16,61.0,46.3,35.0,-99.9,-99.9,-99.9,0,0,100,0.00,40.00,20,8,0,0.00
2013-11-17,57.0,46.0,38.0,-99.9,-99.9,-99.9,0,0,100,0.00,40.00,24,10,0,0.00
2013-11-18,67.0,46.0,27.0,-99.9,-99.9,-99.9,0,0,100,0.00,40.00,7,4,0,0.00
2013-11-19,66.0,50.4,32.0,-99.9,-99.9,-99.9,0,0,100,0.00,40.00,18,5,0,0.00
2013-11-20,62.0,50.1,33.0,-99.9,-99.9,-99.9,0,0,100,0.00,40.00,20,5,0,0.00
2013-11-21,26.0,17.1,15.0,-99.9,-99.9,-99.9,0,0,100,0.00,40.00,12,7,0,0.00
2013-11-22,35.0,29.4,19.0,-99.9,-99.9,-99.9,0,0,100,0.00,40.00,9,4,0,0.00
2013-11-23,38.0,30.0,25.0,-99.9,-99.9,-99.9,0,0,100,0.00,40.00,7,3,0,0.00
2013-11-24,36.0,29.9,23.0,-99.9,-99.9,-99.9,0,0,100,0.00,40.00,6,2,0,0.00
2013-11-25,40.0,36.4,30.0,-99.9,-99.9,-99.9,0,0,100,0.00,40.00,12,5,0,0.00
2013-11-26,52.0,39.0,27.0,-99.9,-99.9,-99.9,0,0,100,0.00,40.00,6,4,0,0.00
2013-11-27,67.0,46.0,24.0,-99.9,-99.9,-99.9,0,0,100,0.00,40.00,7,3,0,0.00
2013-11-28,48.0,37.6,26.0,-99.9,-99.9,-99.9,0,0,100,0.00,40.00,7,3,0,0.00
2013-11-29,64.0,46.3,28.0,-99.9,-99.9,-99.9,0,0,100,0.00,40.00,9,4,0,0.00
2013-11-30,65.0,47.6,32.0,-99.9,-99.9,-99.9,0,0,100,0.00,40.00,9,4,0,0.00
2013-12-1,57.0,47.0,31.0,-99.9,-99.9,-99.9,0,0,100,0.00,40.00,17,7,0,0.00
2013-12-2,63.0,54.7,44.0,-99.9,-99.9,-99.9,0,0,100,0.00,40.00,11,5,0,0.00
2013-12-3,57.0,35.2,14.0,-99.9,-99.9,-99.9,0,0,100,0.00,40.00,18,8,0,0.00
2013-12-4,12.0,7.7,-1.0,-99.9,-99.9,-99.9,0,0,100,0.00,40.00,11,6,0,0.00
2013-12-5,8.0,2.0,-6.0,-99.9,-99.9,-99.9,0,0,100,0.00,40.00,7,4,0,0.00
2013-12-6,8.0,3.0,-2.0,-99.9,-99.9,-99.9,0,0,100,0.00,40.00,6,3,0,0.00
2013-12-7,9.0,3.2,-3.0,-99.9,-99.9,-99.9,0,0,100,0.00,40.00,7,3,0,0.00
2013-12-8,23.0,10.6,3.0,-99.9,-99.9,-99.9,0,0,100,0.00,40.00,7,4,0,0.00
2013-12-9,28.0,16.3,2.0,-99.9,-99.9,-99.9,0,0,100,0.00,40.00,24,7,0,0.00
2013-12-10,47.0,32.3,13.0,-99.9,-99.9,-99.9,0,0,100,0.00,40.00,16,8,0,0.00
2013-12-11,34.0,23.4,15.0,-99.9,-99.9,-99.9,0,0,100,0.00,40.00,9,4,0,0.00
2013-12-12,55.0,33.2,14.0,-99.9,-99.9,-99.9,0,0,100,0.00,40.00,7,3,0,0.00
2013-12-13,51.0,35.0,20.0,-99.9,-99.9,-99.9,0,0,100,0.00,40.00,11,4,0,0.00
2013-12-14,45.0,34.0,25.0,-99.9,-99.9,-99.9,0,0,100,0.00,40.00,8,5,0,0.00
2013-12-15,58.0,48.0,30.0,-99.9,-99.9,-99.9,0,0,100,0.00,40.00,14,7,0,0.00
2013-12-16,63.0,56.1,41.0,-99.9,-99.9,-99.9,0,0,100,0.00,40.00,22,12,0,0.00
2013-12-17,66.0,47.8,31.0,-99.9,-99.9,-99.9,0,0,100,0.00,40.00,10,5,0,0.00
2013-12-18,68.0,55.5,45.0,-99.9,-99.9,-99.9,0,0,100,0.00,40.00,16,7,0,0.00
2013-12-19,44.0,34.1,17.0,-99.9,-99.9,-99.9,0,0,100,0.00,40.00,15,7,0,0.00
2013-12-20,24.0,21.1,16.0,-99.9,-99.9,-99.9,0,0,100,0.00,40.00,4,3,0,0.00
2013-12-21,29.0,22.6,16.0,-99.9,-99.9,-99.9,0,0,100,0.00,40.00,7,3,0,0.00
2013-12-22,41.0,28.7,20.0,-99.9,-99.9,-99.9,0,0,100,0.00,40.00,18,6,0,0.00
2013-12-23,49.0,29.5,15.0,-99.9,-99.9,-99.9,0,0,100,0.00,40.00,10,4,0,0.00
2013-12-24,57.0,40.6,27.0,-99.9,-99.9,-99.9,0,0,100,0.00,40.00,17,7,0,0.00
2013-12-25,47.0,32.2,18.0,-99.9,-99.9,-99.9,0,0,100,0.00,40.00,9,4,0,0.00
2013-12-26,55.0,43.2,29.0,-99.9,-99.9,-99.9,0,0,100,0.00,40.00,8,5,0,0.00
2013-12-27,62.0,45.3,30.0,-99.9,-99.9,-99.9,0,0,100,0.00,40.00,5,4,0,0.00
2013-12-28,61.0,38.5,23.0,-99.9,-99.9,-99.9,0,0,100,0.00,40.00,18,7,0,0.00
2013-12-29,37.0,27.3,16.0,-99.9,-99.9,-99.9,0,0,100,0.00,40.00,7,4,0,0.00
2013-12-30,49.0,40.9,31.0,-99.9,-99.9,-99.9,0,0,100,0.00,40.00,21,7,0,0.00
2013-12-31,57.0,45.7,32.0,-99.9,-99.9,-99.9,0,0,100,0.00,40.00,17,8,0,0.00
2014-1-1,41.0,33.2,25.0,-99.9,-99.9,-99.9,0,0,100,0.00,40.00,14,6,0,0.00
2014-1-2,46.0,31.5,19.0,-99.9,-99.9,-99.9,0,0,100,0.00,40.00,7,4,0,0.00